createdAt,value
2023-04-26T00:01:08.221Z,100799.09
2023-04-26T00:03:40.673Z,100784.03
2023-04-26T00:06:14.080Z,100796.31
2023-04-26T00:08:45.346Z,100793.66
2023-04-26T00:11:16.641Z,100796.25
2023-04-26T00:13:48.941Z,100799.72
2023-04-26T00:16:20.924Z,100797.06
2023-04-26T00:18:52.473Z,100804.00
2023-04-26T00:21:24.019Z,100778.41
2023-04-26T00:23:55.311Z,100799.59
2023-04-26T00:26:26.674Z,100802.22
2023-04-26T00:28:57.963Z,100798.66
2023-04-26T00:31:29.361Z,100801.28
2023-04-26T00:34:00.711Z,100814.38
2023-04-26T00:36:32.595Z,100801.16
2023-04-26T00:39:04.068Z,100806.47
2023-04-26T00:41:35.356Z,100793.31
2023-04-26T00:44:06.681Z,100781.97
2023-04-26T00:46:38.088Z,100803.94
2023-04-26T00:49:15.954Z,100781.00
2023-04-26T00:51:48.193Z,100789.75
2023-04-26T00:54:20.849Z,100808.16
2023-04-26T00:56:53.194Z,100801.09
2023-04-26T00:59:24.545Z,100787.94
2023-04-26T01:01:56.182Z,100797.84
2023-04-26T01:04:27.748Z,100804.97
2023-04-26T01:07:01.815Z,100797.97
2023-04-26T01:09:33.293Z,100802.28
2023-04-26T01:12:06.576Z,100801.31
2023-04-26T01:14:39.802Z,100795.00
2023-04-26T01:17:11.367Z,100794.91
2023-04-26T01:19:49.994Z,100798.34
2023-04-26T01:22:21.741Z,100810.59
2023-04-26T01:24:55.030Z,100808.81
2023-04-26T01:27:26.753Z,100805.28
2023-04-26T01:29:58.150Z,100818.38
2023-04-26T01:32:29.494Z,100808.69
2023-04-26T01:35:00.930Z,100816.63
2023-04-26T01:37:32.198Z,100812.16
2023-04-26T01:40:06.947Z,100791.78
2023-04-26T01:42:38.256Z,100814.66
2023-04-26T01:45:09.994Z,100819.03
2023-04-26T01:47:41.306Z,100824.25
2023-04-26T01:50:12.724Z,100823.34
2023-04-26T01:52:44.007Z,100823.28
2023-04-26T01:55:15.398Z,100811.88
2023-04-26T01:57:46.662Z,100820.66
2023-04-26T02:00:18.256Z,100814.50
2023-04-26T02:02:49.699Z,100819.75
2023-04-26T02:05:21.556Z,100824.13
2023-04-26T02:07:52.972Z,100820.63
2023-04-26T02:10:24.350Z,100818.00
2023-04-26T02:12:55.649Z,100826.69
2023-04-26T02:15:26.940Z,100828.38
2023-04-26T02:17:58.476Z,100806.41
2023-04-26T02:20:29.904Z,100799.41
2023-04-26T02:23:01.202Z,100785.31
2023-04-26T02:25:33.198Z,100813.50
2023-04-26T02:28:07.251Z,100785.44
2023-04-26T02:30:38.710Z,100822.44
2023-04-26T02:33:10.667Z,100819.84
2023-04-26T02:35:41.940Z,100823.34
2023-04-26T02:38:13.249Z,100781.94
2023-04-26T02:40:44.642Z,100821.53
2023-04-26T02:43:15.972Z,100828.50
2023-04-26T02:45:47.338Z,100788.78
2023-04-26T02:48:18.917Z,100816.13
2023-04-26T02:50:50.315Z,100823.19
2023-04-26T02:53:21.700Z,100823.94
2023-04-26T02:55:53.036Z,100808.13
2023-04-26T02:58:24.305Z,100830.94
2023-04-26T03:01:00.472Z,100829.06
2023-04-26T03:03:33.009Z,100823.72
2023-04-26T03:06:04.648Z,100808.72
2023-04-26T03:08:36.614Z,100836.09
2023-04-26T03:11:07.949Z,100834.41
2023-04-26T03:13:39.244Z,100815.06
2023-04-26T03:16:11.055Z,100832.84
2023-04-26T03:18:42.363Z,100814.50
2023-04-26T03:21:13.668Z,100828.88
2023-04-26T03:23:45.011Z,100830.75
2023-04-26T03:26:16.394Z,100831.69
2023-04-26T03:28:47.686Z,100836.16
2023-04-26T03:31:20.854Z,100822.91
2023-04-26T03:33:52.210Z,100855.63
2023-04-26T03:36:23.578Z,100857.50
2023-04-26T03:38:54.875Z,100864.63
2023-04-26T03:41:26.299Z,100861.16
2023-04-26T03:43:57.605Z,100855.03
2023-04-26T03:46:29.250Z,100838.41
2023-04-26T03:49:00.905Z,100831.31
2023-04-26T03:51:32.228Z,100847.19
2023-04-26T03:54:04.439Z,100845.41
2023-04-26T03:56:36.882Z,100813.69
2023-04-26T03:59:09.847Z,100814.50
2023-04-26T04:01:41.336Z,100782.63
2023-04-26T04:04:12.851Z,100847.69
2023-04-26T04:06:44.342Z,100844.09
2023-04-26T04:09:15.804Z,100841.34
2023-04-26T04:11:47.636Z,100842.19
2023-04-26T04:14:18.989Z,100820.09
2023-04-26T04:16:50.740Z,100822.72
2023-04-26T04:19:22.022Z,100831.44
2023-04-26T04:21:53.406Z,100841.88
2023-04-26T04:24:25.601Z,100841.06
2023-04-26T04:26:56.960Z,100788.19
2023-04-26T04:29:28.256Z,100819.06
2023-04-26T04:31:59.541Z,100848.09
2023-04-26T04:34:34.509Z,100837.59
2023-04-26T04:37:05.777Z,100818.19
2023-04-26T04:39:37.738Z,100821.91
2023-04-26T04:42:10.238Z,100831.88
2023-04-26T04:44:41.976Z,100856.72
2023-04-26T04:47:13.700Z,100859.59
2023-04-26T04:49:45.292Z,100856.19
2023-04-26T04:52:18.796Z,100868.50
2023-04-26T04:54:50.433Z,100855.41
2023-04-26T04:57:21.758Z,100841.34
2023-04-26T04:59:53.237Z,100862.84
2023-04-26T05:02:25.743Z,100843.88
2023-04-26T05:04:57.563Z,100845.88
2023-04-26T05:07:29.226Z,100850.47
2023-04-26T05:10:00.656Z,100842.59
2023-04-26T05:12:32.284Z,100851.34
2023-04-26T05:15:04.601Z,100845.19
2023-04-26T05:17:36.170Z,100843.38
2023-04-26T05:20:08.383Z,100846.88
2023-04-26T05:22:39.871Z,100854.78
2023-04-26T05:25:11.351Z,100856.50
2023-04-26T05:27:42.800Z,100861.72
2023-04-26T05:30:14.294Z,100865.28
2023-04-26T05:32:45.810Z,100868.84
2023-04-26T05:35:19.278Z,100854.94
2023-04-26T05:37:50.655Z,100836.53
2023-04-26T05:40:22.012Z,100858.53
2023-04-26T05:42:53.457Z,100865.59
2023-04-26T05:45:24.796Z,100842.78
2023-04-26T05:47:56.208Z,100861.25
2023-04-26T05:50:28.550Z,100868.31
2023-04-26T05:52:59.888Z,100868.38
2023-04-26T05:55:33.309Z,100863.13
2023-04-26T05:58:05.101Z,100872.31
2023-04-26T06:00:38.613Z,100866.19
2023-04-26T06:03:10.169Z,100859.44
2023-04-26T06:05:41.693Z,100867.03
2023-04-26T06:08:13.069Z,100863.88
2023-04-26T06:10:44.442Z,100873.03
2023-04-26T06:13:15.927Z,100872.34
2023-04-26T06:15:47.281Z,100876.34
2023-04-26T06:18:18.602Z,100879.00
2023-04-26T06:20:50.944Z,100872.06
2023-04-26T06:23:22.343Z,100860.31
2023-04-26T06:25:53.635Z,100859.00
2023-04-26T06:28:24.912Z,100867.06
2023-04-26T06:30:56.430Z,100872.25
2023-04-26T06:33:27.801Z,100869.81
2023-04-26T06:35:59.178Z,100870.22
2023-04-26T06:38:30.613Z,100877.22
2023-04-26T06:41:01.946Z,100884.06
2023-04-26T06:43:33.303Z,100879.72
2023-04-26T06:46:05.193Z,100884.69
2023-04-26T06:48:36.563Z,100864.75
2023-04-26T06:51:08.591Z,100891.28
2023-04-26T06:53:41.457Z,100891.41
2023-04-26T06:56:12.818Z,100888.84
2023-04-26T06:58:59.938Z,100872.13
2023-04-26T07:01:34.878Z,100878.25
2023-04-26T07:04:10.988Z,100868.56
2023-04-26T07:06:42.534Z,100893.94
2023-04-26T07:09:14.083Z,100887.56
2023-04-26T07:11:47.316Z,100870.41
2023-04-26T07:14:18.936Z,100890.84
2023-04-26T07:16:50.300Z,100889.72
2023-04-26T07:19:21.575Z,100907.47
2023-04-26T07:21:53.048Z,100892.69
2023-04-26T07:24:24.394Z,100887.75
2023-04-26T07:26:56.808Z,100916.09
2023-04-26T07:29:28.638Z,100915.34
2023-04-26T07:32:00.010Z,100925.25
2023-04-26T07:34:31.464Z,100930.66
2023-04-26T07:37:03.405Z,100930.75
2023-04-26T07:39:35.183Z,100940.47
2023-04-26T07:42:07.251Z,100926.31
2023-04-26T07:44:38.601Z,100932.44
2023-04-26T07:47:13.570Z,100907.84
2023-04-26T07:49:46.383Z,100929.00
2023-04-26T07:52:19.059Z,100924.63
2023-04-26T07:54:50.526Z,100921.06
2023-04-26T07:57:21.891Z,100905.03
2023-04-26T07:59:53.204Z,100924.97
2023-04-26T08:02:36.714Z,100915.00
2023-04-26T08:05:15.913Z,100926.34
2023-04-26T08:07:47.429Z,100928.09
2023-04-26T08:10:18.958Z,100926.41
2023-04-26T08:12:50.321Z,100917.28
2023-04-26T08:15:21.686Z,100927.78
2023-04-26T08:17:53.295Z,100926.63
2023-04-26T08:20:25.241Z,100928.44
2023-04-26T08:22:57.100Z,100933.47
2023-04-26T08:25:28.972Z,100937.69
2023-04-26T08:28:01.874Z,100936.66
2023-04-26T08:30:33.444Z,100929.69
2023-04-26T08:33:04.816Z,100946.25
2023-04-26T08:35:36.320Z,100947.03
2023-04-26T08:38:07.701Z,100920.47
2023-04-26T08:40:41.537Z,100922.41
2023-04-26T08:43:15.160Z,100942.69
2023-04-26T08:45:47.117Z,100935.44
2023-04-26T08:48:19.401Z,100949.41
2023-04-26T08:50:52.133Z,100938.25
2023-04-26T08:53:24.873Z,100939.00
2023-04-26T08:55:56.433Z,100946.44
2023-04-26T08:58:28.135Z,100956.03
2023-04-26T09:01:00.986Z,100961.38
2023-04-26T09:03:33.221Z,100960.88
2023-04-26T09:06:06.755Z,100964.44
2023-04-26T09:08:41.549Z,100947.88
2023-04-26T09:11:12.972Z,100958.44
2023-04-26T09:13:44.279Z,100963.63
2023-04-26T09:16:15.843Z,100966.19
2023-04-26T09:18:52.031Z,100965.19
2023-04-26T09:21:23.431Z,100958.91
2023-04-26T09:24:06.447Z,100938.56
2023-04-26T09:26:38.684Z,100965.56
2023-04-26T09:29:15.022Z,100955.84
2023-04-26T09:31:49.925Z,100956.78
2023-04-26T09:34:21.717Z,100944.28
2023-04-26T09:36:56.912Z,100943.84
2023-04-26T09:39:37.259Z,100951.53
2023-04-26T09:42:10.122Z,100960.72
2023-04-26T09:44:41.459Z,100967.41
2023-04-26T09:47:12.950Z,100962.44
2023-04-26T09:49:51.581Z,100978.41
2023-04-26T09:52:22.898Z,100964.81
2023-04-26T09:54:55.036Z,100981.22
2023-04-26T09:57:26.370Z,100980.56
2023-04-26T09:59:57.843Z,100984.78
2023-04-26T10:02:29.974Z,100987.97
2023-04-26T10:05:03.024Z,100980.63
2023-04-26T10:07:34.629Z,100971.31
2023-04-26T10:10:07.794Z,100971.44
2023-04-26T10:12:42.246Z,100985.22
2023-04-26T10:15:14.842Z,100978.19
2023-04-26T10:17:46.217Z,100986.16
2023-04-26T10:20:20.223Z,100974.97
2023-04-26T10:22:54.956Z,100976.00
2023-04-26T10:25:39.785Z,100976.19
2023-04-26T10:28:11.473Z,100970.13
2023-04-26T10:30:56.684Z,100955.09
2023-04-26T10:33:28.179Z,100958.28
2023-04-26T10:36:15.078Z,100945.44
2023-04-26T10:39:17.158Z,100955.75
2023-04-26T10:41:48.703Z,100939.16
2023-04-26T10:44:39.652Z,100951.28
2023-04-26T10:47:31.617Z,100949.72
2023-04-26T10:50:11.406Z,100933.41
2023-04-26T10:53:04.199Z,100939.44
2023-04-26T10:55:43.003Z,100931.47
2023-04-26T10:58:28.431Z,100943.72
2023-04-26T11:01:13.279Z,100956.00
2023-04-26T11:04:04.984Z,100961.47
2023-04-26T11:06:51.264Z,100935.84
2023-04-26T11:09:42.306Z,100945.94
2023-04-26T11:12:15.115Z,100950.25
2023-04-26T11:14:46.636Z,100952.50
2023-04-26T11:17:18.057Z,100958.91
2023-04-26T11:19:49.404Z,100966.06
2023-04-26T11:22:23.227Z,100932.19
2023-04-26T11:24:54.613Z,100957.09
2023-04-26T11:27:27.658Z,100929.94
2023-04-26T11:30:04.355Z,100946.41
2023-04-26T11:32:35.893Z,100906.50
2023-04-26T11:35:07.625Z,100933.16
2023-04-26T11:37:38.995Z,100943.22
2023-04-26T11:40:11.625Z,100932.91
2023-04-26T11:42:44.858Z,100920.72
2023-04-26T11:45:16.709Z,100923.72
2023-04-26T11:47:48.334Z,100946.53
2023-04-26T11:50:20.790Z,100947.59
2023-04-26T11:52:54.826Z,100949.63
2023-04-26T11:55:33.055Z,100944.44
2023-04-26T11:58:14.914Z,100948.22
2023-04-26T12:01:01.950Z,100962.75
2023-04-26T12:03:37.996Z,100975.25
2023-04-26T12:06:09.764Z,100977.31
2023-04-26T12:08:41.379Z,100985.22
2023-04-26T12:11:16.790Z,100980.44
2023-04-26T12:13:48.101Z,100971.16
2023-04-26T12:16:26.065Z,100980.88
2023-04-26T12:18:58.292Z,100980.75
2023-04-26T12:21:30.910Z,100984.22
2023-04-26T12:24:02.618Z,100961.97
2023-04-26T12:26:47.216Z,100978.94
2023-04-26T12:29:18.664Z,100966.69
2023-04-26T12:31:50.260Z,100971.19
2023-04-26T12:34:21.800Z,100971.50
2023-04-26T12:36:53.262Z,100955.91
2023-04-26T12:39:24.651Z,100972.06
2023-04-26T12:41:55.916Z,100960.06
2023-04-26T12:44:27.418Z,100954.19
2023-04-26T12:46:58.839Z,100961.16
2023-04-26T12:49:30.426Z,100950.66
2023-04-26T12:52:01.787Z,100994.22
2023-04-26T12:54:33.206Z,100980.38
2023-04-26T12:57:05.662Z,100997.47
2023-04-26T12:59:36.969Z,100977.56
2023-04-26T13:02:10.095Z,100995.88
2023-04-26T13:04:42.091Z,100969.59
2023-04-26T13:07:13.683Z,101001.03
2023-04-26T13:09:45.724Z,100996.38
2023-04-26T13:12:17.182Z,100970.84
2023-04-26T13:14:48.700Z,100980.19
2023-04-26T13:17:20.505Z,100992.94
2023-04-26T13:19:52.971Z,100966.09
2023-04-26T13:22:24.411Z,100978.25
2023-04-26T13:24:55.786Z,100993.06
2023-04-26T13:27:29.081Z,100980.25
2023-04-26T13:30:02.121Z,100982.31
2023-04-26T13:32:33.548Z,100992.25
2023-04-26T13:35:06.069Z,100997.41
2023-04-26T13:37:37.603Z,100996.03
2023-04-26T13:40:11.197Z,100991.25
2023-04-26T13:42:42.691Z,100969.72
2023-04-26T13:45:14.239Z,100983.09
2023-04-26T13:47:45.682Z,100973.38
2023-04-26T13:50:17.123Z,100998.00
2023-04-26T13:52:50.819Z,100998.91
2023-04-26T13:55:22.720Z,100982.78
2023-04-26T13:57:54.011Z,100998.56
2023-04-26T14:00:25.613Z,100988.75
2023-04-26T14:02:57.312Z,100986.56
2023-04-26T14:05:28.773Z,100972.63
2023-04-26T14:08:00.139Z,100983.97
2023-04-26T14:10:32.169Z,101013.50
2023-04-26T14:13:03.602Z,100998.69
2023-04-26T14:15:37.008Z,101005.41
2023-04-26T14:18:08.652Z,100982.28
2023-04-26T14:20:40.093Z,101019.56
2023-04-26T14:23:11.465Z,101018.03
2023-04-26T14:25:42.901Z,101018.19
2023-04-26T14:28:16.312Z,101010.19
2023-04-26T14:30:47.851Z,101006.63
2023-04-26T14:33:19.227Z,101010.00
2023-04-26T14:35:50.718Z,101010.63
2023-04-26T14:38:22.238Z,101003.47
2023-04-26T14:40:53.585Z,101017.66
2023-04-26T14:43:24.984Z,101015.88
2023-04-26T14:45:58.159Z,100997.50
2023-04-26T14:48:30.367Z,100995.66
2023-04-26T14:51:01.776Z,101013.69
2023-04-26T14:53:33.129Z,101000.78
2023-04-26T14:56:07.378Z,101014.03
2023-04-26T14:58:38.666Z,101002.03
2023-04-26T15:01:10.385Z,100994.38
2023-04-26T15:03:41.930Z,101028.81
2023-04-26T15:06:13.303Z,101024.59
2023-04-26T15:08:44.706Z,100999.00
2023-04-26T15:11:16.328Z,101021.81
2023-04-26T15:13:47.700Z,101014.53
2023-04-26T15:16:19.335Z,100988.72
2023-04-26T15:18:50.737Z,101017.84
2023-04-26T15:21:22.072Z,101003.19
2023-04-26T15:23:53.696Z,101027.28
2023-04-26T15:26:25.840Z,101014.44
2023-04-26T15:28:57.552Z,101013.81
2023-04-26T15:31:29.046Z,101014.88
2023-04-26T15:34:00.567Z,101023.72
2023-04-26T15:36:31.979Z,101026.28
2023-04-26T15:39:03.930Z,101023.50
2023-04-26T15:41:35.250Z,101033.22
2023-04-26T15:44:06.567Z,101012.16
2023-04-26T15:46:38.275Z,101032.38
2023-04-26T15:49:09.704Z,101025.31
2023-04-26T15:51:41.068Z,101036.63
2023-04-26T15:54:12.440Z,101030.44
2023-04-26T15:56:44.912Z,101036.63
2023-04-26T15:59:16.213Z,101040.09
2023-04-26T16:01:47.678Z,101035.75
2023-04-26T16:04:19.159Z,101042.81
2023-04-26T16:06:50.654Z,101042.03
2023-04-26T16:09:25.492Z,101038.56
2023-04-26T16:11:57.303Z,101024.50
2023-04-26T16:14:28.827Z,101036.91
2023-04-26T16:17:01.467Z,101012.44
2023-04-26T16:19:32.799Z,101039.88
2023-04-26T16:22:04.307Z,101049.63
2023-04-26T16:24:35.803Z,101053.13
2023-04-26T16:27:07.121Z,101045.06
2023-04-26T16:29:38.458Z,101046.00
2023-04-26T16:32:09.727Z,101035.50
2023-04-26T16:34:41.057Z,101045.25
2023-04-26T16:37:12.389Z,101025.91
2023-04-26T16:39:43.733Z,101044.41
2023-04-26T16:42:15.051Z,101043.53
2023-04-26T16:44:46.344Z,101023.38
2023-04-26T16:47:17.719Z,101046.34
2023-04-26T16:49:48.984Z,101042.94
2023-04-26T16:52:20.304Z,101058.97
2023-04-26T16:54:51.628Z,101054.53
2023-04-26T16:57:23.779Z,101051.88
2023-04-26T16:59:55.140Z,101057.13
2023-04-26T17:02:26.732Z,101021.88
2023-04-26T17:04:58.132Z,101052.63
2023-04-26T17:07:29.523Z,101019.28
2023-04-26T17:10:01.086Z,101056.31
2023-04-26T17:12:32.379Z,101045.78
2023-04-26T17:15:04.807Z,101059.03
2023-04-26T17:17:36.301Z,101060.91
2023-04-26T17:20:10.117Z,101064.50
2023-04-26T17:22:42.554Z,101060.22
2023-04-26T17:25:13.926Z,101051.44
2023-04-26T17:27:45.449Z,101059.44
2023-04-26T17:30:17.171Z,101073.56
2023-04-26T17:32:48.762Z,101071.91
2023-04-26T17:35:20.168Z,101083.38
2023-04-26T17:37:51.596Z,101078.09
2023-04-26T17:40:22.969Z,101067.53
2023-04-26T17:42:54.293Z,101067.56
2023-04-26T17:45:25.772Z,101074.59
2023-04-26T17:47:57.272Z,101069.34
2023-04-26T17:50:30.139Z,101065.81
2023-04-26T17:53:03.017Z,101069.38
2023-04-26T17:55:36.413Z,101067.63
2023-04-26T17:58:07.864Z,101052.69
2023-04-26T18:00:39.241Z,101073.78
2023-04-26T18:03:11.811Z,101092.28
2023-04-26T18:05:43.252Z,101078.19
2023-04-26T18:08:14.624Z,101080.00
2023-04-26T18:10:47.821Z,101088.81
2023-04-26T18:13:20.928Z,101074.75
2023-04-26T18:15:54.997Z,101088.84
2023-04-26T18:18:27.785Z,101094.16
2023-04-26T18:20:59.310Z,101080.94
2023-04-26T18:23:30.990Z,101093.28
2023-04-26T18:26:02.332Z,101057.19
2023-04-26T18:28:33.691Z,101095.03
2023-04-26T18:31:05.024Z,101080.97
2023-04-26T18:33:36.334Z,101094.19
2023-04-26T18:36:07.831Z,101083.63
2023-04-26T18:38:39.243Z,101100.34
2023-04-26T18:41:10.695Z,101104.75
2023-04-26T18:43:41.987Z,101103.00
2023-04-26T18:46:13.283Z,101111.78
2023-04-26T18:48:44.627Z,101107.38
2023-04-26T18:51:16.090Z,101106.50
2023-04-26T18:53:47.407Z,101114.41
2023-04-26T18:56:18.818Z,101108.25
2023-04-26T18:58:50.084Z,101104.69
2023-04-26T19:01:21.771Z,101108.22
2023-04-26T19:03:53.324Z,101109.97
2023-04-26T19:06:24.886Z,101111.69
2023-04-26T19:08:56.318Z,101093.13
2023-04-26T19:11:27.664Z,101111.56
2023-04-26T19:13:59.011Z,101093.91
2023-04-26T19:16:30.733Z,101094.75
2023-04-26T19:19:03.245Z,101114.09
2023-04-26T19:21:35.599Z,101095.50
2023-04-26T19:24:07.375Z,101130.66
2023-04-26T19:26:38.657Z,101117.41
2023-04-26T19:29:10.616Z,101127.94
2023-04-26T19:31:41.994Z,101102.25
2023-04-26T19:34:13.395Z,101136.59
2023-04-26T19:36:44.766Z,101132.13
2023-04-26T19:39:16.537Z,101136.44
2023-04-26T19:41:47.866Z,101129.31
2023-04-26T19:44:20.319Z,101127.50
2023-04-26T19:46:51.726Z,101111.59
2023-04-26T19:49:23.078Z,101141.53
2023-04-26T19:51:54.394Z,101152.03
2023-04-26T19:54:25.757Z,101152.03
2023-04-26T19:56:57.072Z,101145.88
2023-04-26T19:59:28.404Z,101134.44
2023-04-26T20:01:59.740Z,101148.50
2023-04-26T20:04:31.192Z,101151.09
2023-04-26T20:07:04.842Z,101152.81
2023-04-26T20:09:36.137Z,101127.16
2023-04-26T20:12:07.493Z,101120.97
2023-04-26T20:14:38.930Z,101132.34
2023-04-26T20:17:10.284Z,101128.75
2023-04-26T20:19:42.539Z,101150.75
2023-04-26T20:22:13.811Z,101102.97
2023-04-26T20:24:45.080Z,101148.78
2023-04-26T20:27:16.347Z,101119.53
2023-04-26T20:29:47.619Z,101162.66
2023-04-26T20:32:18.998Z,101134.28
2023-04-26T20:34:50.650Z,101149.25
2023-04-26T20:37:21.999Z,101144.75
2023-04-26T20:39:53.446Z,101160.59
2023-04-26T20:42:25.040Z,101149.13
2023-04-26T20:44:57.413Z,101122.53
2023-04-26T20:47:30.046Z,101133.97
2023-04-26T20:50:01.533Z,101149.91
2023-04-26T20:52:32.857Z,101132.28
2023-04-26T20:55:04.569Z,101157.94
2023-04-26T20:57:36.294Z,101130.63
2023-04-26T21:00:10.372Z,101156.28
2023-04-26T21:02:42.052Z,101159.78
2023-04-26T21:05:14.649Z,101134.09
2023-04-26T21:07:46.550Z,101155.19
2023-04-26T21:10:17.828Z,101154.13
2023-04-26T21:12:49.100Z,101144.25
2023-04-26T21:15:20.743Z,101152.06
2023-04-26T21:17:52.157Z,101164.34
2023-04-26T21:20:23.606Z,101159.88
2023-04-26T21:22:54.888Z,101169.38
2023-04-26T21:25:27.771Z,101178.97
2023-04-26T21:27:59.013Z,101170.13
2023-04-26T21:30:30.302Z,101153.22
2023-04-26T21:33:01.904Z,101160.25
2023-04-26T21:35:33.243Z,101164.59
2023-04-26T21:38:04.490Z,101175.06
2023-04-26T21:40:35.853Z,101160.78
2023-04-26T21:43:07.181Z,101166.00
2023-04-26T21:45:38.474Z,101142.03
2023-04-26T21:48:09.949Z,101182.53
2023-04-26T21:50:41.526Z,101170.03
2023-04-26T21:53:12.814Z,101182.28
2023-04-26T21:55:44.310Z,101153.00
2023-04-26T21:58:15.716Z,101182.06
2023-04-26T22:00:47.504Z,101187.19
2023-04-26T22:03:19.645Z,101189.72
2023-04-26T22:05:51.152Z,101187.00
2023-04-26T22:08:22.448Z,101162.16
2023-04-26T22:10:53.764Z,101146.19
2023-04-26T22:13:25.168Z,101161.00
2023-04-26T22:15:56.570Z,101181.34
2023-04-26T22:18:29.114Z,101158.38
2023-04-26T22:21:00.505Z,101153.94
2023-04-26T22:23:31.884Z,101157.44
2023-04-26T22:26:03.200Z,101183.09
2023-04-26T22:28:35.088Z,101172.44
2023-04-26T22:31:06.403Z,101188.19
2023-04-26T22:33:37.673Z,101182.88
2023-04-26T22:36:09.513Z,101178.38
2023-04-26T22:38:40.825Z,101175.66
2023-04-26T22:41:12.144Z,101135.78
2023-04-26T22:43:44.600Z,101183.34
2023-04-26T22:46:17.591Z,101188.59
2023-04-26T22:48:50.918Z,101191.13
2023-04-26T22:51:22.354Z,101189.34
2023-04-26T22:53:53.706Z,101173.41
2023-04-26T22:56:24.995Z,101194.50
2023-04-26T22:58:56.260Z,101190.91
2023-04-26T23:01:27.648Z,101180.22
2023-04-26T23:03:58.972Z,101183.09
2023-04-26T23:06:30.237Z,101173.34
2023-04-26T23:09:01.682Z,101200.88
2023-04-26T23:11:33.293Z,101181.47
2023-04-26T23:14:06.738Z,101201.09
2023-04-26T23:16:38.767Z,101197.59
2023-04-26T23:19:11.113Z,101194.84
2023-04-26T23:21:42.543Z,101188.63
2023-04-26T23:24:13.879Z,101207.97
2023-04-26T23:26:45.254Z,101212.25
2023-04-26T23:29:16.568Z,101203.44
2023-04-26T23:31:48.021Z,101206.84
2023-04-26T23:34:19.312Z,101215.63
2023-04-26T23:36:50.666Z,101211.16
2023-04-26T23:39:22.033Z,101185.47
2023-04-26T23:41:53.301Z,101195.88
2023-04-26T23:44:24.623Z,101197.41
2023-04-26T23:46:56.108Z,101220.13
2023-04-26T23:49:27.828Z,101222.59
2023-04-26T23:51:59.178Z,101194.25
2023-04-26T23:54:31.216Z,101196.72
2023-04-26T23:57:03.969Z,101163.03
2023-04-26T23:59:35.288Z,101221.47
